sensor_id;sensor_type;location;lat;lon;timestamp;temperature;humidity
7384;DHT22;3733;47.994;8.820;2022-10-16T00:00:39;12.50;99.90
7384;DHT22;3733;47.994;8.820;2022-10-16T00:03:05;12.60;99.90
7384;DHT22;3733;47.994;8.820;2022-10-16T00:05:31;12.60;99.90
7384;DHT22;3733;47.994;8.820;2022-10-16T00:07:57;12.60;99.90
7384;DHT22;3733;47.994;8.820;2022-10-16T00:10:23;12.60;99.90
7384;DHT22;3733;47.994;8.820;2022-10-16T00:12:49;12.60;99.90
7384;DHT22;3733;47.994;8.820;2022-10-16T00:15:15;12.60;99.90
7384;DHT22;3733;47.994;8.820;2022-10-16T00:17:40;12.60;99.90
7384;DHT22;3733;47.994;8.820;2022-10-16T00:20:07;12.60;99.90
7384;DHT22;3733;47.994;8.820;2022-10-16T00:22:32;12.50;99.90
7384;DHT22;3733;47.994;8.820;2022-10-16T00:24:58;12.50;99.90
7384;DHT22;3733;47.994;8.820;2022-10-16T00:27:24;12.50;99.90
7384;DHT22;3733;47.994;8.820;2022-10-16T00:29:53;12.50;99.90
7384;DHT22;3733;47.994;8.820;2022-10-16T00:32:19;12.50;99.90
7384;DHT22;3733;47.994;8.820;2022-10-16T00:34:45;12.50;99.90
7384;DHT22;3733;47.994;8.820;2022-10-16T00:37:11;12.40;99.90
7384;DHT22;3733;47.994;8.820;2022-10-16T00:39:37;12.40;99.90
7384;DHT22;3733;47.994;8.820;2022-10-16T00:42:03;12.40;99.90
7384;DHT22;3733;47.994;8.820;2022-10-16T00:44:50;12.40;99.90
7384;DHT22;3733;47.994;8.820;2022-10-16T00:47:34;12.40;99.90
7384;DHT22;3733;47.994;8.820;2022-10-16T00:50:09;12.40;99.90
7384;DHT22;3733;47.994;8.820;2022-10-16T00:52:37;12.40;99.90
7384;DHT22;3733;47.994;8.820;2022-10-16T00:55:06;12.30;99.90
7384;DHT22;3733;47.994;8.820;2022-10-16T00:57:31;12.30;99.90
7384;DHT22;3733;47.994;8.820;2022-10-16T00:59:57;12.30;99.90
7384;DHT22;3733;47.994;8.820;2022-10-16T01:02:24;12.30;99.90
7384;DHT22;3733;47.994;8.820;2022-10-16T01:04:51;12.30;99.90
7384;DHT22;3733;47.994;8.820;2022-10-16T01:07:27;12.30;99.90
7384;DHT22;3733;47.994;8.820;2022-10-16T01:13:05;12.30;99.90
7384;DHT22;3733;47.994;8.820;2022-10-16T01:21:06;12.30;99.90
7384;DHT22;3733;47.994;8.820;2022-10-16T01:26:31;12.30;99.90
7384;DHT22;3733;47.994;8.820;2022-10-16T01:29:03;12.30;99.90
7384;DHT22;3733;47.994;8.820;2022-10-16T01:31:34;12.30;99.90
7384;DHT22;3733;47.994;8.820;2022-10-16T01:34:15;12.30;99.90
7384;DHT22;3733;47.994;8.820;2022-10-16T01:36:46;12.30;99.90
7384;DHT22;3733;47.994;8.820;2022-10-16T01:39:13;12.30;99.90
7384;DHT22;3733;47.994;8.820;2022-10-16T01:41:54;12.30;99.90
7384;DHT22;3733;47.994;8.820;2022-10-16T01:44:23;12.30;99.90
7384;DHT22;3733;47.994;8.820;2022-10-16T01:46:52;12.30;99.90
7384;DHT22;3733;47.994;8.820;2022-10-16T01:49:19;12.30;99.90
7384;DHT22;3733;47.994;8.820;2022-10-16T01:51:48;12.30;99.90
7384;DHT22;3733;47.994;8.820;2022-10-16T01:54:16;12.20;99.90
7384;DHT22;3733;47.994;8.820;2022-10-16T01:56:45;12.30;99.90
7384;DHT22;3733;47.994;8.820;2022-10-16T01:59:15;12.30;99.90
7384;DHT22;3733;47.994;8.820;2022-10-16T02:01:45;12.30;99.90
7384;DHT22;3733;47.994;8.820;2022-10-16T02:04:39;12.30;99.90
7384;DHT22;3733;47.994;8.820;2022-10-16T02:07:08;12.30;99.90
7384;DHT22;3733;47.994;8.820;2022-10-16T02:09:34;12.30;99.90
7384;DHT22;3733;47.994;8.820;2022-10-16T02:12:06;12.30;99.90
7384;DHT22;3733;47.994;8.820;2022-10-16T02:14:34;12.30;99.90
7384;DHT22;3733;47.994;8.820;2022-10-16T02:17:14;12.20;99.90
7384;DHT22;3733;47.994;8.820;2022-10-16T02:19:42;12.20;99.90
7384;DHT22;3733;47.994;8.820;2022-10-16T02:22:11;12.20;99.90
7384;DHT22;3733;47.994;8.820;2022-10-16T02:24:49;12.20;99.90
7384;DHT22;3733;47.994;8.820;2022-10-16T02:27:34;12.20;99.90
7384;DHT22;3733;47.994;8.820;2022-10-16T02:30:09;12.20;99.90
7384;DHT22;3733;47.994;8.820;2022-10-16T02:32:39;12.20;99.90
7384;DHT22;3733;47.994;8.820;2022-10-16T02:35:08;12.20;99.90
7384;DHT22;3733;47.994;8.820;2022-10-16T02:37:34;12.10;99.90
7384;DHT22;3733;47.994;8.820;2022-10-16T02:40:00;12.20;99.90
7384;DHT22;3733;47.994;8.820;2022-10-16T02:42:33;12.20;99.90
7384;DHT22;3733;47.994;8.820;2022-10-16T02:44:59;12.20;99.90
7384;DHT22;3733;47.994;8.820;2022-10-16T02:47:25;12.20;99.90
7384;DHT22;3733;47.994;8.820;2022-10-16T02:49:50;12.20;99.90
7384;DHT22;3733;47.994;8.820;2022-10-16T02:52:16;12.20;99.90
7384;DHT22;3733;47.994;8.820;2022-10-16T02:54:41;12.20;99.90
7384;DHT22;3733;47.994;8.820;2022-10-16T02:57:07;12.20;99.90
7384;DHT22;3733;47.994;8.820;2022-10-16T02:59:33;12.20;99.90
7384;DHT22;3733;47.994;8.820;2022-10-16T03:01:58;12.20;99.90
7384;DHT22;3733;47.994;8.820;2022-10-16T03:04:24;12.20;99.90
7384;DHT22;3733;47.994;8.820;2022-10-16T03:06:49;12.20;99.90
7384;DHT22;3733;47.994;8.820;2022-10-16T03:09:15;12.20;99.90
7384;DHT22;3733;47.994;8.820;2022-10-16T03:11:40;12.20;99.90
7384;DHT22;3733;47.994;8.820;2022-10-16T03:14:06;12.20;99.90
7384;DHT22;3733;47.994;8.820;2022-10-16T03:16:32;12.20;99.90
7384;DHT22;3733;47.994;8.820;2022-10-16T03:18:58;12.20;99.90
7384;DHT22;3733;47.994;8.820;2022-10-16T03:21:23;12.20;99.90
7384;DHT22;3733;47.994;8.820;2022-10-16T03:23:50;12.20;99.90
7384;DHT22;3733;47.994;8.820;2022-10-16T03:26:15;12.10;99.90
7384;DHT22;3733;47.994;8.820;2022-10-16T03:28:41;12.10;99.90
7384;DHT22;3733;47.994;8.820;2022-10-16T03:31:06;12.10;99.90
7384;DHT22;3733;47.994;8.820;2022-10-16T03:33:33;12.10;99.90
7384;DHT22;3733;47.994;8.820;2022-10-16T03:35:59;12.10;99.90
7384;DHT22;3733;47.994;8.820;2022-10-16T03:38:24;12.10;99.90
7384;DHT22;3733;47.994;8.820;2022-10-16T03:40:50;12.00;99.90
7384;DHT22;3733;47.994;8.820;2022-10-16T03:43:15;12.00;99.90
7384;DHT22;3733;47.994;8.820;2022-10-16T03:45:41;12.00;99.90
7384;DHT22;3733;47.994;8.820;2022-10-16T03:48:07;12.00;99.90
7384;DHT22;3733;47.994;8.820;2022-10-16T03:50:32;11.90;99.90
7384;DHT22;3733;47.994;8.820;2022-10-16T03:52:58;11.90;99.90
7384;DHT22;3733;47.994;8.820;2022-10-16T03:55:23;11.90;99.90
7384;DHT22;3733;47.994;8.820;2022-10-16T03:57:49;11.90;99.90
7384;DHT22;3733;47.994;8.820;2022-10-16T04:00:15;11.90;99.90
7384;DHT22;3733;47.994;8.820;2022-10-16T04:02:40;11.90;99.90
7384;DHT22;3733;47.994;8.820;2022-10-16T04:05:06;11.90;99.90
7384;DHT22;3733;47.994;8.820;2022-10-16T04:07:32;11.90;99.90
7384;DHT22;3733;47.994;8.820;2022-10-16T04:09:57;11.90;99.90
7384;DHT22;3733;47.994;8.820;2022-10-16T04:12:25;11.80;99.90
7384;DHT22;3733;47.994;8.820;2022-10-16T04:14:51;11.90;99.90
7384;DHT22;3733;47.994;8.820;2022-10-16T04:17:16;11.80;99.90
7384;DHT22;3733;47.994;8.820;2022-10-16T04:19:42;11.80;99.90
7384;DHT22;3733;47.994;8.820;2022-10-16T04:22:08;11.80;99.90
7384;DHT22;3733;47.994;8.820;2022-10-16T04:24:33;11.80;99.90
7384;DHT22;3733;47.994;8.820;2022-10-16T04:26:59;11.80;99.90
7384;DHT22;3733;47.994;8.820;2022-10-16T04:29:24;11.80;99.90
7384;DHT22;3733;47.994;8.820;2022-10-16T04:31:50;11.80;99.90
7384;DHT22;3733;47.994;8.820;2022-10-16T04:34:16;11.90;99.90
7384;DHT22;3733;47.994;8.820;2022-10-16T04:36:41;11.80;99.90
7384;DHT22;3733;47.994;8.820;2022-10-16T04:39:07;11.80;99.90
7384;DHT22;3733;47.994;8.820;2022-10-16T04:41:33;11.90;99.90
7384;DHT22;3733;47.994;8.820;2022-10-16T04:43:58;11.90;99.90
7384;DHT22;3733;47.994;8.820;2022-10-16T04:46:24;11.90;99.90
7384;DHT22;3733;47.994;8.820;2022-10-16T04:48:49;11.90;99.90
7384;DHT22;3733;47.994;8.820;2022-10-16T04:51:15;11.90;99.90
7384;DHT22;3733;47.994;8.820;2022-10-16T04:53:41;11.90;99.90
7384;DHT22;3733;47.994;8.820;2022-10-16T04:56:06;11.90;99.90
7384;DHT22;3733;47.994;8.820;2022-10-16T04:58:32;11.90;99.90
7384;DHT22;3733;47.994;8.820;2022-10-16T05:00:58;11.90;99.90
7384;DHT22;3733;47.994;8.820;2022-10-16T05:03:24;11.90;99.90
7384;DHT22;3733;47.994;8.820;2022-10-16T05:05:49;11.90;99.90
7384;DHT22;3733;47.994;8.820;2022-10-16T05:08:16;11.90;99.90
7384;DHT22;3733;47.994;8.820;2022-10-16T05:10:43;11.90;99.90
7384;DHT22;3733;47.994;8.820;2022-10-16T05:13:09;11.90;99.90
7384;DHT22;3733;47.994;8.820;2022-10-16T05:15:35;11.90;99.90
7384;DHT22;3733;47.994;8.820;2022-10-16T05:18:01;11.90;99.90
7384;DHT22;3733;47.994;8.820;2022-10-16T05:20:26;11.90;99.90
7384;DHT22;3733;47.994;8.820;2022-10-16T05:22:52;11.90;99.90
7384;DHT22;3733;47.994;8.820;2022-10-16T05:25:18;11.90;99.90
7384;DHT22;3733;47.994;8.820;2022-10-16T05:27:46;11.90;99.90
7384;DHT22;3733;47.994;8.820;2022-10-16T05:30:12;11.90;99.90
7384;DHT22;3733;47.994;8.820;2022-10-16T05:32:37;11.90;99.90
7384;DHT22;3733;47.994;8.820;2022-10-16T05:35:04;11.90;99.90
7384;DHT22;3733;47.994;8.820;2022-10-16T05:37:29;11.90;99.90
7384;DHT22;3733;47.994;8.820;2022-10-16T05:39:55;11.90;99.90
7384;DHT22;3733;47.994;8.820;2022-10-16T05:42:20;11.90;99.90
7384;DHT22;3733;47.994;8.820;2022-10-16T05:44:46;11.90;99.90
7384;DHT22;3733;47.994;8.820;2022-10-16T05:47:15;11.90;99.90
7384;DHT22;3733;47.994;8.820;2022-10-16T05:49:40;11.90;99.90
7384;DHT22;3733;47.994;8.820;2022-10-16T05:52:06;11.90;99.90
7384;DHT22;3733;47.994;8.820;2022-10-16T05:54:32;11.90;99.90
7384;DHT22;3733;47.994;8.820;2022-10-16T05:56:57;11.90;99.90
7384;DHT22;3733;47.994;8.820;2022-10-16T05:59:23;11.90;99.90
7384;DHT22;3733;47.994;8.820;2022-10-16T06:01:48;11.90;99.90
7384;DHT22;3733;47.994;8.820;2022-10-16T06:04:14;11.90;99.90
7384;DHT22;3733;47.994;8.820;2022-10-16T06:06:40;11.90;99.90
7384;DHT22;3733;47.994;8.820;2022-10-16T06:09:05;11.90;99.90
7384;DHT22;3733;47.994;8.820;2022-10-16T06:11:32;11.90;99.90
7384;DHT22;3733;47.994;8.820;2022-10-16T06:14:00;11.90;99.90
7384;DHT22;3733;47.994;8.820;2022-10-16T06:16:33;11.90;99.90
7384;DHT22;3733;47.994;8.820;2022-10-16T06:18:59;11.90;99.90
7384;DHT22;3733;47.994;8.820;2022-10-16T06:21:26;11.90;99.90
7384;DHT22;3733;47.994;8.820;2022-10-16T06:23:52;11.90;99.90
7384;DHT22;3733;47.994;8.820;2022-10-16T06:26:19;11.90;99.90
7384;DHT22;3733;47.994;8.820;2022-10-16T06:28:46;11.90;99.90
7384;DHT22;3733;47.994;8.820;2022-10-16T06:31:12;11.90;99.90
7384;DHT22;3733;47.994;8.820;2022-10-16T06:33:38;11.90;99.90
7384;DHT22;3733;47.994;8.820;2022-10-16T06:36:10;11.90;99.90
7384;DHT22;3733;47.994;8.820;2022-10-16T06:38:36;11.90;99.90
7384;DHT22;3733;47.994;8.820;2022-10-16T06:41:03;12.00;99.90
7384;DHT22;3733;47.994;8.820;2022-10-16T06:43:30;12.00;99.90
7384;DHT22;3733;47.994;8.820;2022-10-16T06:46:01;12.00;99.90
7384;DHT22;3733;47.994;8.820;2022-10-16T06:48:28;12.10;99.90
7384;DHT22;3733;47.994;8.820;2022-10-16T06:51:05;12.10;99.90
7384;DHT22;3733;47.994;8.820;2022-10-16T06:53:33;12.10;99.90
7384;DHT22;3733;47.994;8.820;2022-10-16T06:56:10;12.10;99.90
7384;DHT22;3733;47.994;8.820;2022-10-16T06:58:36;12.10;99.90
7384;DHT22;3733;47.994;8.820;2022-10-16T07:01:03;12.10;99.90
7384;DHT22;3733;47.994;8.820;2022-10-16T07:03:29;12.20;99.90
7384;DHT22;3733;47.994;8.820;2022-10-16T07:05:54;12.20;99.90
7384;DHT22;3733;47.994;8.820;2022-10-16T07:08:20;12.20;99.90
7384;DHT22;3733;47.994;8.820;2022-10-16T07:10:45;12.20;99.90
7384;DHT22;3733;47.994;8.820;2022-10-16T07:13:11;12.20;99.90
7384;DHT22;3733;47.994;8.820;2022-10-16T07:15:40;12.20;99.90
7384;DHT22;3733;47.994;8.820;2022-10-16T07:18:06;12.20;99.90
7384;DHT22;3733;47.994;8.820;2022-10-16T07:20:32;12.30;99.90
7384;DHT22;3733;47.994;8.820;2022-10-16T07:22:58;12.30;99.90
7384;DHT22;3733;47.994;8.820;2022-10-16T07:25:23;12.30;99.90
7384;DHT22;3733;47.994;8.820;2022-10-16T07:27:49;12.30;99.90
7384;DHT22;3733;47.994;8.820;2022-10-16T07:30:15;12.30;99.90
7384;DHT22;3733;47.994;8.820;2022-10-16T07:32:40;12.40;99.90
7384;DHT22;3733;47.994;8.820;2022-10-16T07:35:07;12.40;99.90
7384;DHT22;3733;47.994;8.820;2022-10-16T07:37:32;12.50;99.90
7384;DHT22;3733;47.994;8.820;2022-10-16T07:39:58;12.50;99.90
7384;DHT22;3733;47.994;8.820;2022-10-16T07:42:24;12.50;99.90
7384;DHT22;3733;47.994;8.820;2022-10-16T07:44:49;12.50;99.90
7384;DHT22;3733;47.994;8.820;2022-10-16T07:47:15;12.60;99.90
7384;DHT22;3733;47.994;8.820;2022-10-16T07:49:40;12.60;99.90
7384;DHT22;3733;47.994;8.820;2022-10-16T07:52:06;12.60;99.90
7384;DHT22;3733;47.994;8.820;2022-10-16T07:54:32;12.60;99.90
7384;DHT22;3733;47.994;8.820;2022-10-16T07:56:58;12.70;99.90
7384;DHT22;3733;47.994;8.820;2022-10-16T07:59:23;12.70;99.90
7384;DHT22;3733;47.994;8.820;2022-10-16T08:01:49;12.70;99.90
7384;DHT22;3733;47.994;8.820;2022-10-16T08:04:15;12.80;99.90
7384;DHT22;3733;47.994;8.820;2022-10-16T08:06:41;12.80;99.90
7384;DHT22;3733;47.994;8.820;2022-10-16T08:09:07;12.80;99.90
7384;DHT22;3733;47.994;8.820;2022-10-16T08:11:33;12.80;99.90
7384;DHT22;3733;47.994;8.820;2022-10-16T08:13:59;12.90;99.90
7384;DHT22;3733;47.994;8.820;2022-10-16T08:16:25;12.90;99.90
7384;DHT22;3733;47.994;8.820;2022-10-16T08:18:51;13.00;99.90
7384;DHT22;3733;47.994;8.820;2022-10-16T08:21:19;13.00;99.90
7384;DHT22;3733;47.994;8.820;2022-10-16T08:23:46;13.00;99.90
7384;DHT22;3733;47.994;8.820;2022-10-16T08:26:12;13.10;99.90
7384;DHT22;3733;47.994;8.820;2022-10-16T08:28:38;13.10;99.90
7384;DHT22;3733;47.994;8.820;2022-10-16T08:31:13;13.20;99.90
7384;DHT22;3733;47.994;8.820;2022-10-16T08:33:41;13.20;99.90
7384;DHT22;3733;47.994;8.820;2022-10-16T08:36:08;13.30;99.90
7384;DHT22;3733;47.994;8.820;2022-10-16T08:38:34;13.40;99.90
7384;DHT22;3733;47.994;8.820;2022-10-16T08:46:45;13.70;99.90
7384;DHT22;3733;47.994;8.820;2022-10-16T08:49:15;13.70;99.90
7384;DHT22;3733;47.994;8.820;2022-10-16T08:51:41;13.70;99.90
7384;DHT22;3733;47.994;8.820;2022-10-16T08:54:29;13.80;99.90
7384;DHT22;3733;47.994;8.820;2022-10-16T08:56:57;13.80;99.90
7384;DHT22;3733;47.994;8.820;2022-10-16T08:59:26;13.80;99.90
7384;DHT22;3733;47.994;8.820;2022-10-16T09:01:52;13.90;99.90
7384;DHT22;3733;47.994;8.820;2022-10-16T09:06:57;14.00;99.90
7384;DHT22;3733;47.994;8.820;2022-10-16T09:12:27;14.10;99.90
7384;DHT22;3733;47.994;8.820;2022-10-16T09:17:50;14.30;99.90
7384;DHT22;3733;47.994;8.820;2022-10-16T09:25:31;14.50;99.90
7384;DHT22;3733;47.994;8.820;2022-10-16T09:27:58;14.60;99.90
7384;DHT22;3733;47.994;8.820;2022-10-16T09:30:27;14.70;99.90
7384;DHT22;3733;47.994;8.820;2022-10-16T09:32:55;14.80;99.90
7384;DHT22;3733;47.994;8.820;2022-10-16T09:37:56;15.00;99.90
7384;DHT22;3733;47.994;8.820;2022-10-16T09:40:37;15.00;99.90
7384;DHT22;3733;47.994;8.820;2022-10-16T09:46:06;15.10;99.90
7384;DHT22;3733;47.994;8.820;2022-10-16T09:48:52;15.10;99.90
7384;DHT22;3733;47.994;8.820;2022-10-16T09:51:39;15.20;99.90
7384;DHT22;3733;47.994;8.820;2022-10-16T09:56:37;15.20;99.90
7384;DHT22;3733;47.994;8.820;2022-10-16T09:59:15;15.30;99.90
7384;DHT22;3733;47.994;8.820;2022-10-16T10:01:51;15.40;99.90
7384;DHT22;3733;47.994;8.820;2022-10-16T10:04:18;15.40;99.90
7384;DHT22;3733;47.994;8.820;2022-10-16T10:06:50;15.50;99.90
7384;DHT22;3733;47.994;8.820;2022-10-16T10:16:39;16.10;99.90
7384;DHT22;3733;47.994;8.820;2022-10-16T10:19:08;16.30;99.90
7384;DHT22;3733;47.994;8.820;2022-10-16T10:21:38;16.60;99.90
7384;DHT22;3733;47.994;8.820;2022-10-16T10:24:04;16.80;99.90
7384;DHT22;3733;47.994;8.820;2022-10-16T10:26:32;17.00;99.90
7384;DHT22;3733;47.994;8.820;2022-10-16T10:29:09;17.20;99.90
7384;DHT22;3733;47.994;8.820;2022-10-16T10:37:14;17.40;99.90
7384;DHT22;3733;47.994;8.820;2022-10-16T10:43:01;17.70;99.90
7384;DHT22;3733;47.994;8.820;2022-10-16T10:48:14;18.10;99.90
7384;DHT22;3733;47.994;8.820;2022-10-16T10:50:48;18.20;99.90
7384;DHT22;3733;47.994;8.820;2022-10-16T10:53:44;18.30;99.90
7384;DHT22;3733;47.994;8.820;2022-10-16T11:02:05;18.70;99.90
7384;DHT22;3733;47.994;8.820;2022-10-16T11:04:41;18.70;99.90
7384;DHT22;3733;47.994;8.820;2022-10-16T11:07:27;18.70;99.90
7384;DHT22;3733;47.994;8.820;2022-10-16T11:10:26;18.90;99.90
7384;DHT22;3733;47.994;8.820;2022-10-16T11:12:59;19.10;99.90
7384;DHT22;3733;47.994;8.820;2022-10-16T11:15:37;19.30;99.90
7384;DHT22;3733;47.994;8.820;2022-10-16T11:18:11;19.70;99.90
7384;DHT22;3733;47.994;8.820;2022-10-16T11:20:42;20.30;99.90
7384;DHT22;3733;47.994;8.820;2022-10-16T11:25:46;21.00;99.90
7384;DHT22;3733;47.994;8.820;2022-10-16T11:28:25;21.00;99.90
7384;DHT22;3733;47.994;8.820;2022-10-16T11:31:08;21.10;99.90
7384;DHT22;3733;47.994;8.820;2022-10-16T11:34:05;21.20;99.90
7384;DHT22;3733;47.994;8.820;2022-10-16T11:41:53;22.60;87.30
7384;DHT22;3733;47.994;8.820;2022-10-16T11:50:03;23.90;71.90
7384;DHT22;3733;47.994;8.820;2022-10-16T11:52:41;24.40;69.50
7384;DHT22;3733;47.994;8.820;2022-10-16T11:57:54;25.80;62.20
7384;DHT22;3733;47.994;8.820;2022-10-16T12:00:31;26.40;60.30
7384;DHT22;3733;47.994;8.820;2022-10-16T12:03:08;27.10;58.10
7384;DHT22;3733;47.994;8.820;2022-10-16T12:05:58;27.50;55.00
7384;DHT22;3733;47.994;8.820;2022-10-16T12:08:25;27.80;53.90
7384;DHT22;3733;47.994;8.820;2022-10-16T12:10:51;27.40;53.20
7384;DHT22;3733;47.994;8.820;2022-10-16T12:13:33;27.00;54.00
7384;DHT22;3733;47.994;8.820;2022-10-16T12:18:44;27.00;54.70
7384;DHT22;3733;47.994;8.820;2022-10-16T12:21:11;27.20;52.90
7384;DHT22;3733;47.994;8.820;2022-10-16T12:23:51;27.20;52.80
7384;DHT22;3733;47.994;8.820;2022-10-16T12:26:32;27.20;52.80
7384;DHT22;3733;47.994;8.820;2022-10-16T12:31:47;26.80;52.00
7384;DHT22;3733;47.994;8.820;2022-10-16T12:36:49;26.10;53.70
7384;DHT22;3733;47.994;8.820;2022-10-16T12:39:23;25.80;54.10
7384;DHT22;3733;47.994;8.820;2022-10-16T12:42:01;25.70;54.30
7384;DHT22;3733;47.994;8.820;2022-10-16T12:44:32;25.70;54.40
7384;DHT22;3733;47.994;8.820;2022-10-16T12:46:58;25.70;53.30
7384;DHT22;3733;47.994;8.820;2022-10-16T12:49:31;25.50;52.70
7384;DHT22;3733;47.994;8.820;2022-10-16T12:51:57;25.40;53.40
7384;DHT22;3733;47.994;8.820;2022-10-16T12:57:52;25.00;54.10
7384;DHT22;3733;47.994;8.820;2022-10-16T13:22:27;25.30;53.60
7384;DHT22;3733;47.994;8.820;2022-10-16T13:28:12;25.20;53.40
7384;DHT22;3733;47.994;8.820;2022-10-16T13:30:51;25.10;53.80
7384;DHT22;3733;47.994;8.820;2022-10-16T13:35:57;24.90;54.00
7384;DHT22;3733;47.994;8.820;2022-10-16T13:38:27;24.70;53.90
7384;DHT22;3733;47.994;8.820;2022-10-16T13:41:00;24.60;54.00
7384;DHT22;3733;47.994;8.820;2022-10-16T13:46:04;24.40;54.20
7384;DHT22;3733;47.994;8.820;2022-10-16T13:48:31;24.40;54.00
7384;DHT22;3733;47.994;8.820;2022-10-16T13:51:00;24.50;54.20
7384;DHT22;3733;47.994;8.820;2022-10-16T13:53:26;24.40;54.20
7384;DHT22;3733;47.994;8.820;2022-10-16T13:55:52;24.40;54.70
7384;DHT22;3733;47.994;8.820;2022-10-16T13:58:17;24.40;55.00
7384;DHT22;3733;47.994;8.820;2022-10-16T14:00:57;24.40;54.80
7384;DHT22;3733;47.994;8.820;2022-10-16T14:03:24;24.50;55.10
7384;DHT22;3733;47.994;8.820;2022-10-16T14:05:53;24.70;55.10
7384;DHT22;3733;47.994;8.820;2022-10-16T14:08:19;24.60;55.30
7384;DHT22;3733;47.994;8.820;2022-10-16T14:10:54;24.50;55.10
7384;DHT22;3733;47.994;8.820;2022-10-16T14:13:29;24.50;54.90
7384;DHT22;3733;47.994;8.820;2022-10-16T14:15:56;24.50;55.20
7384;DHT22;3733;47.994;8.820;2022-10-16T14:18:27;24.50;55.40
7384;DHT22;3733;47.994;8.820;2022-10-16T14:20:53;24.60;55.50
7384;DHT22;3733;47.994;8.820;2022-10-16T14:23:37;24.60;55.10
7384;DHT22;3733;47.994;8.820;2022-10-16T14:28:38;24.80;55.20
7384;DHT22;3733;47.994;8.820;2022-10-16T14:33:51;25.40;54.50
7384;DHT22;3733;47.994;8.820;2022-10-16T14:36:17;25.30;54.70
7384;DHT22;3733;47.994;8.820;2022-10-16T14:41:25;25.30;54.80
7384;DHT22;3733;47.994;8.820;2022-10-16T14:43:53;25.50;55.20
7384;DHT22;3733;47.994;8.820;2022-10-16T14:46:27;25.70;54.90
7384;DHT22;3733;47.994;8.820;2022-10-16T14:49:00;25.90;54.70
7384;DHT22;3733;47.994;8.820;2022-10-16T14:51:27;26.10;54.00
7384;DHT22;3733;47.994;8.820;2022-10-16T14:53:53;26.30;53.00
7384;DHT22;3733;47.994;8.820;2022-10-16T14:56:24;26.00;53.00
7384;DHT22;3733;47.994;8.820;2022-10-16T14:58:51;25.40;54.10
7384;DHT22;3733;47.994;8.820;2022-10-16T15:01:17;24.80;55.50
7384;DHT22;3733;47.994;8.820;2022-10-16T15:03:43;24.20;56.20
7384;DHT22;3733;47.994;8.820;2022-10-16T15:06:13;23.70;57.30
7384;DHT22;3733;47.994;8.820;2022-10-16T15:08:39;23.90;59.30
7384;DHT22;3733;47.994;8.820;2022-10-16T15:11:08;24.70;59.20
7384;DHT22;3733;47.994;8.820;2022-10-16T15:13:35;25.10;58.00
7384;DHT22;3733;47.994;8.820;2022-10-16T15:16:01;25.40;57.30
7384;DHT22;3733;47.994;8.820;2022-10-16T15:18:26;25.60;55.70
7384;DHT22;3733;47.994;8.820;2022-10-16T15:20:52;25.70;54.50
7384;DHT22;3733;47.994;8.820;2022-10-16T15:23:20;25.50;54.40
7384;DHT22;3733;47.994;8.820;2022-10-16T15:25:51;25.10;55.00
7384;DHT22;3733;47.994;8.820;2022-10-16T15:28:18;24.40;56.50
7384;DHT22;3733;47.994;8.820;2022-10-16T15:30:44;23.70;58.00
7384;DHT22;3733;47.994;8.820;2022-10-16T15:33:20;23.00;59.60
7384;DHT22;3733;47.994;8.820;2022-10-16T15:35:47;22.40;62.20
7384;DHT22;3733;47.994;8.820;2022-10-16T15:38:14;21.90;70.70
7384;DHT22;3733;47.994;8.820;2022-10-16T15:40:40;21.50;77.90
7384;DHT22;3733;47.994;8.820;2022-10-16T15:43:06;21.10;84.00
7384;DHT22;3733;47.994;8.820;2022-10-16T15:45:32;20.80;90.40
7384;DHT22;3733;47.994;8.820;2022-10-16T15:47:58;20.60;93.90
7384;DHT22;3733;47.994;8.820;2022-10-16T15:50:23;20.30;97.20
7384;DHT22;3733;47.994;8.820;2022-10-16T15:52:50;20.10;99.70
7384;DHT22;3733;47.994;8.820;2022-10-16T15:55:16;19.80;99.90
7384;DHT22;3733;47.994;8.820;2022-10-16T15:57:44;19.70;99.90
7384;DHT22;3733;47.994;8.820;2022-10-16T16:00:12;19.50;99.90
7384;DHT22;3733;47.994;8.820;2022-10-16T16:02:39;19.40;99.90
7384;DHT22;3733;47.994;8.820;2022-10-16T16:05:06;19.30;99.90
7384;DHT22;3733;47.994;8.820;2022-10-16T16:07:37;19.20;99.90
7384;DHT22;3733;47.994;8.820;2022-10-16T16:10:05;19.10;99.90
7384;DHT22;3733;47.994;8.820;2022-10-16T16:12:32;18.90;99.90
7384;DHT22;3733;47.994;8.820;2022-10-16T16:14:58;18.80;99.90
7384;DHT22;3733;47.994;8.820;2022-10-16T16:17:23;18.70;99.90
7384;DHT22;3733;47.994;8.820;2022-10-16T16:19:50;18.50;99.90
7384;DHT22;3733;47.994;8.820;2022-10-16T16:22:15;18.40;99.90
7384;DHT22;3733;47.994;8.820;2022-10-16T16:24:41;18.30;99.90
7384;DHT22;3733;47.994;8.820;2022-10-16T16:27:07;18.20;99.90
7384;DHT22;3733;47.994;8.820;2022-10-16T16:29:33;18.10;99.90
7384;DHT22;3733;47.994;8.820;2022-10-16T16:32:02;18.00;99.90
7384;DHT22;3733;47.994;8.820;2022-10-16T16:34:28;17.90;99.90
7384;DHT22;3733;47.994;8.820;2022-10-16T16:36:55;17.80;99.90
7384;DHT22;3733;47.994;8.820;2022-10-16T16:39:21;17.70;99.90
7384;DHT22;3733;47.994;8.820;2022-10-16T16:41:47;17.60;99.90
7384;DHT22;3733;47.994;8.820;2022-10-16T16:44:14;17.50;99.90
7384;DHT22;3733;47.994;8.820;2022-10-16T16:46:40;17.40;99.90
7384;DHT22;3733;47.994;8.820;2022-10-16T16:49:06;17.30;99.90
7384;DHT22;3733;47.994;8.820;2022-10-16T16:51:32;17.20;99.90
7384;DHT22;3733;47.994;8.820;2022-10-16T16:53:58;17.10;99.90
7384;DHT22;3733;47.994;8.820;2022-10-16T16:56:25;17.00;99.90
7384;DHT22;3733;47.994;8.820;2022-10-16T16:58:53;16.90;99.90
7384;DHT22;3733;47.994;8.820;2022-10-16T17:01:20;16.70;99.90
7384;DHT22;3733;47.994;8.820;2022-10-16T17:03:47;16.70;99.90
7384;DHT22;3733;47.994;8.820;2022-10-16T17:06:14;16.60;99.90
7384;DHT22;3733;47.994;8.820;2022-10-16T17:08:41;16.50;99.90
7384;DHT22;3733;47.994;8.820;2022-10-16T17:11:15;16.50;99.90
7384;DHT22;3733;47.994;8.820;2022-10-16T17:13:42;16.40;99.90
7384;DHT22;3733;47.994;8.820;2022-10-16T17:16:07;16.40;99.90
7384;DHT22;3733;47.994;8.820;2022-10-16T17:18:34;16.30;99.90
7384;DHT22;3733;47.994;8.820;2022-10-16T17:21:04;16.20;99.90
7384;DHT22;3733;47.994;8.820;2022-10-16T17:23:32;16.20;99.90
7384;DHT22;3733;47.994;8.820;2022-10-16T17:26:03;16.10;99.90
7384;DHT22;3733;47.994;8.820;2022-10-16T17:28:29;16.10;99.90
7384;DHT22;3733;47.994;8.820;2022-10-16T17:30:54;16.00;99.90
7384;DHT22;3733;47.994;8.820;2022-10-16T17:33:20;16.00;99.90
7384;DHT22;3733;47.994;8.820;2022-10-16T17:35:46;15.90;99.90
7384;DHT22;3733;47.994;8.820;2022-10-16T17:38:13;15.80;99.90
7384;DHT22;3733;47.994;8.820;2022-10-16T17:40:39;15.70;99.90
7384;DHT22;3733;47.994;8.820;2022-10-16T17:43:05;15.60;99.90
7384;DHT22;3733;47.994;8.820;2022-10-16T17:45:35;15.60;99.90
7384;DHT22;3733;47.994;8.820;2022-10-16T17:48:00;15.50;99.90
7384;DHT22;3733;47.994;8.820;2022-10-16T17:50:26;15.40;99.90
7384;DHT22;3733;47.994;8.820;2022-10-16T17:52:52;15.40;99.90
7384;DHT22;3733;47.994;8.820;2022-10-16T17:55:18;15.30;99.90
7384;DHT22;3733;47.994;8.820;2022-10-16T17:57:44;15.30;99.90
7384;DHT22;3733;47.994;8.820;2022-10-16T18:00:10;15.20;99.90
7384;DHT22;3733;47.994;8.820;2022-10-16T18:02:36;15.20;99.90
7384;DHT22;3733;47.994;8.820;2022-10-16T18:05:02;15.10;99.90
7384;DHT22;3733;47.994;8.820;2022-10-16T18:07:30;15.10;99.90
7384;DHT22;3733;47.994;8.820;2022-10-16T18:09:56;15.00;99.90
7384;DHT22;3733;47.994;8.820;2022-10-16T18:12:22;14.90;99.90
7384;DHT22;3733;47.994;8.820;2022-10-16T18:14:47;14.90;99.90
7384;DHT22;3733;47.994;8.820;2022-10-16T18:17:13;14.80;99.90
7384;DHT22;3733;47.994;8.820;2022-10-16T18:19:40;14.70;99.90